createdAt,value
2018-05-07T00:00:33.051Z,70.56
2018-05-07T00:01:32.980Z,70.65
2018-05-07T00:02:32.905Z,70.81
2018-05-07T00:03:32.828Z,70.62
2018-05-07T00:04:32.746Z,71.76
2018-05-07T00:05:32.674Z,71.95
2018-05-07T00:06:32.591Z,72.33
2018-05-07T00:07:33.524Z,72.33
2018-05-07T00:08:32.441Z,72.05
2018-05-07T00:09:32.435Z,72.86
2018-05-07T00:10:32.283Z,72.77
2018-05-07T00:11:32.302Z,73.06
2018-05-07T00:12:32.135Z,73.91
2018-05-07T00:13:32.075Z,73.63
2018-05-07T00:14:31.982Z,73.53
2018-05-07T00:15:31.914Z,73.57
2018-05-07T00:16:31.832Z,71.76
2018-05-07T00:17:31.761Z,72.30
2018-05-07T00:18:31.680Z,72.71
2018-05-07T00:19:31.611Z,74.14
2018-05-07T00:20:31.536Z,74.24
2018-05-07T00:21:31.455Z,74.24
2018-05-07T00:22:31.375Z,74.71
2018-05-07T00:23:31.310Z,74.14
2018-05-07T00:24:31.222Z,74.24
2018-05-07T00:25:31.152Z,74.43
2018-05-07T00:26:31.089Z,73.66
2018-05-07T00:27:30.998Z,73.57
2018-05-07T00:28:30.917Z,73.85
2018-05-07T00:29:30.847Z,73.66
2018-05-07T00:30:30.763Z,73.76
2018-05-07T00:31:30.694Z,73.66
2018-05-07T00:32:30.610Z,74.24
2018-05-07T00:33:30.541Z,74.04
2018-05-07T00:34:30.460Z,74.04
2018-05-07T00:35:30.386Z,74.24
2018-05-07T00:36:30.307Z,73.85
2018-05-07T00:37:30.234Z,73.28
2018-05-07T00:38:30.152Z,71.76
2018-05-07T00:39:30.081Z,71.95
2018-05-07T00:40:30.001Z,72.14
2018-05-07T00:41:29.932Z,72.90
2018-05-07T00:42:29.843Z,72.71
2018-05-07T00:43:29.782Z,73.19
2018-05-07T00:44:29.698Z,73.19
2018-05-07T00:45:29.623Z,73.28
2018-05-07T00:46:29.541Z,72.81
2018-05-07T00:47:29.476Z,72.20
2018-05-07T00:48:29.392Z,72.86
2018-05-07T00:49:29.332Z,73.15
2018-05-07T00:50:29.319Z,73.72
2018-05-07T00:51:29.166Z,73.34
2018-05-07T00:52:29.085Z,72.58
2018-05-07T00:53:29.013Z,73.15
2018-05-07T00:54:28.931Z,73.82
2018-05-07T00:55:28.861Z,73.82
2018-05-07T00:56:28.778Z,75.15
2018-05-07T00:57:28.709Z,75.15
2018-05-07T00:58:28.626Z,75.91
2018-05-07T00:59:28.557Z,76.39
2018-05-07T01:00:28.476Z,76.57
2018-05-07T01:01:28.399Z,76.29
2018-05-07T01:02:28.319Z,76.48
2018-05-07T01:03:28.251Z,76.39
2018-05-07T01:04:28.168Z,75.24
2018-05-07T01:05:28.098Z,75.24
2018-05-07T01:06:28.012Z,75.24
2018-05-07T01:07:27.944Z,75.15
2018-05-07T01:08:27.863Z,74.87
2018-05-07T01:09:27.788Z,74.87
2018-05-07T01:10:27.705Z,75.53
2018-05-07T01:11:27.640Z,74.29
2018-05-07T01:12:27.552Z,74.20
2018-05-07T01:13:27.491Z,74.39
2018-05-07T01:14:27.398Z,74.87
2018-05-07T01:15:27.338Z,75.24
2018-05-07T01:16:27.252Z,75.15
2018-05-07T01:17:27.173Z,74.16
2018-05-07T01:18:27.092Z,75.15
2018-05-07T01:19:27.030Z,74.92
2018-05-07T01:20:26.943Z,75.96
2018-05-07T01:21:26.873Z,76.20
2018-05-07T01:22:26.786Z,75.53
2018-05-07T01:23:26.725Z,76.67
2018-05-07T01:24:26.640Z,77.39
2018-05-07T01:25:26.563Z,76.54
2018-05-07T01:26:26.483Z,75.15
2018-05-07T01:27:26.413Z,75.72
2018-05-07T01:28:26.327Z,76.57
2018-05-07T01:29:26.261Z,76.86
2018-05-07T01:30:26.177Z,77.15
2018-05-07T01:31:26.102Z,77.24
2018-05-07T01:32:26.020Z,76.25
2018-05-07T01:33:25.952Z,75.72
2018-05-07T01:34:25.868Z,76.29
2018-05-07T01:35:25.796Z,76.76
2018-05-07T01:36:25.710Z,76.86
2018-05-07T01:37:25.642Z,76.76
2018-05-07T01:38:25.558Z,77.15
2018-05-07T01:39:25.490Z,77.05
2018-05-07T01:40:25.412Z,77.05
2018-05-07T01:41:25.337Z,77.24
2018-05-07T01:42:25.251Z,77.24
2018-05-07T01:43:25.180Z,77.01
2018-05-07T01:44:25.098Z,75.91
2018-05-07T01:45:25.039Z,74.67
2018-05-07T01:46:24.946Z,74.82
2018-05-07T01:47:24.875Z,74.82
2018-05-07T01:48:24.792Z,75.02
2018-05-07T01:49:24.718Z,76.35
2018-05-07T01:50:24.637Z,76.63
2018-05-07T01:51:24.566Z,77.58
2018-05-07T01:52:24.480Z,76.63
2018-05-07T01:53:24.426Z,77.58
2018-05-07T01:54:24.329Z,77.36
2018-05-07T01:55:24.258Z,77.07
2018-05-07T01:56:24.179Z,77.64
2018-05-07T01:57:24.105Z,78.78
2018-05-07T01:58:24.025Z,79.54
2018-05-07T01:59:23.957Z,79.25
2018-05-07T02:00:23.870Z,79.63
2018-05-07T02:01:23.804Z,79.92
2018-05-07T02:02:23.716Z,80.02
2018-05-07T02:03:23.649Z,78.88
2018-05-07T02:04:23.563Z,77.92
2018-05-07T02:05:23.489Z,76.97
2018-05-07T02:06:23.405Z,75.74
2018-05-07T02:07:23.342Z,75.84
2018-05-07T02:08:23.251Z,75.84
2018-05-07T02:09:23.185Z,75.45
2018-05-07T02:10:23.097Z,75.36
2018-05-07T02:11:23.026Z,75.74
2018-05-07T02:12:22.944Z,76.31
2018-05-07T02:13:22.875Z,75.84
2018-05-07T02:14:22.787Z,76.78
2018-05-07T02:15:22.725Z,77.64
2018-05-07T02:16:22.634Z,78.97
2018-05-07T02:17:22.570Z,79.54
2018-05-07T02:18:22.479Z,78.50
2018-05-07T02:19:22.410Z,78.69
2018-05-07T02:20:22.327Z,79.35
2018-05-07T02:21:22.256Z,76.59
2018-05-07T02:22:22.173Z,76.21
2018-05-07T02:23:22.106Z,76.03
2018-05-07T02:24:22.018Z,76.59
2018-05-07T02:25:21.954Z,78.40
2018-05-07T02:26:21.862Z,78.88
2018-05-07T02:27:21.790Z,78.50
2018-05-07T02:28:21.709Z,78.21
2018-05-07T02:29:21.636Z,78.40
2018-05-07T02:30:21.556Z,79.25
2018-05-07T02:31:21.522Z,79.63
2018-05-07T02:32:21.406Z,79.25
2018-05-07T02:33:21.332Z,78.02
2018-05-07T02:34:21.248Z,76.88
2018-05-07T02:35:21.181Z,75.74
2018-05-07T02:36:21.090Z,74.79
2018-05-07T02:37:21.024Z,74.79
2018-05-07T02:38:20.937Z,74.98
2018-05-07T02:39:20.870Z,75.07
2018-05-07T02:40:20.785Z,76.40
2018-05-07T02:41:20.712Z,78.11
2018-05-07T02:42:20.625Z,78.21
2018-05-07T02:43:20.561Z,77.55
2018-05-07T02:44:20.475Z,76.88
2018-05-07T02:45:20.399Z,77.45
2018-05-07T02:46:20.317Z,77.26
2018-05-07T02:47:21.243Z,77.55
2018-05-07T02:48:20.174Z,77.92
2018-05-07T02:49:20.102Z,76.31
2018-05-07T02:50:20.009Z,75.64
2018-05-07T02:51:19.937Z,76.12
2018-05-07T02:52:19.853Z,76.59
2018-05-07T02:53:19.785Z,77.36
2018-05-07T02:54:19.697Z,78.21
2018-05-07T02:55:19.628Z,78.69
2018-05-07T02:56:19.546Z,78.59
2018-05-07T02:57:19.470Z,79.25
2018-05-07T02:58:19.393Z,80.11
2018-05-07T02:59:19.322Z,80.58
2018-05-07T03:00:19.238Z,81.16
2018-05-07T03:01:19.166Z,79.83
2018-05-07T03:02:19.077Z,80.58
2018-05-07T03:03:19.090Z,81.25
2018-05-07T03:04:18.926Z,81.63
2018-05-07T03:05:18.853Z,81.54
2018-05-07T03:06:18.773Z,81.44
2018-05-07T03:07:18.703Z,81.25
2018-05-07T03:08:18.616Z,81.54
2018-05-07T03:09:18.545Z,81.54
2018-05-07T03:10:18.461Z,80.40
2018-05-07T03:11:18.389Z,79.92
2018-05-07T03:12:18.302Z,80.21
2018-05-07T03:13:18.243Z,79.06
2018-05-07T03:14:18.151Z,77.73
2018-05-07T03:15:18.080Z,77.73
2018-05-07T03:16:17.993Z,76.78
2018-05-07T03:17:17.925Z,77.45
2018-05-07T03:18:17.840Z,77.26
2018-05-07T03:19:17.768Z,77.83
2018-05-07T03:20:17.685Z,77.73
2018-05-07T03:21:17.616Z,78.40
2018-05-07T03:22:17.529Z,79.54
2018-05-07T03:23:17.458Z,79.92
2018-05-07T03:24:17.372Z,81.06
2018-05-07T03:25:17.330Z,81.63
2018-05-07T03:26:17.218Z,81.06
2018-05-07T03:27:17.145Z,80.96
2018-05-07T03:28:17.071Z,81.82
2018-05-07T03:29:16.997Z,82.10
2018-05-07T03:30:16.909Z,82.10
2018-05-07T03:31:16.926Z,82.10
2018-05-07T03:32:16.757Z,81.82
2018-05-07T03:33:16.689Z,82.39
2018-05-07T03:34:16.603Z,82.10
2018-05-07T03:35:16.542Z,81.92
2018-05-07T03:36:16.445Z,81.63
2018-05-07T03:37:16.372Z,81.82
2018-05-07T03:38:16.551Z,82.01
2018-05-07T03:39:16.262Z,80.02
2018-05-07T03:40:16.136Z,78.36
2018-05-07T03:41:16.063Z,78.64
2018-05-07T03:42:15.982Z,78.93
2018-05-07T03:43:15.982Z,79.97
2018-05-07T03:44:15.823Z,79.88
2018-05-07T03:45:15.789Z,79.88
2018-05-07T03:46:15.899Z,79.60
2018-05-07T03:47:15.702Z,78.17
2018-05-07T03:48:15.516Z,78.83
2018-05-07T03:49:15.649Z,79.97
2018-05-07T03:50:15.358Z,79.97
2018-05-07T03:51:15.376Z,78.93
2018-05-07T03:52:15.204Z,79.79
2018-05-07T03:53:15.229Z,80.45
2018-05-07T03:54:15.049Z,81.87
2018-05-07T03:55:15.040Z,82.26
2018-05-07T03:56:14.890Z,81.40
2018-05-07T03:57:14.844Z,80.74
2018-05-07T03:58:14.734Z,81.21
2018-05-07T03:59:14.757Z,81.59
2018-05-07T04:00:14.582Z,82.54
2018-05-07T04:01:14.571Z,81.59
2018-05-07T04:02:14.425Z,80.16
2018-05-07T04:03:14.377Z,79.41
2018-05-07T04:04:14.273Z,79.88
2018-05-07T04:05:14.285Z,80.93
2018-05-07T04:06:14.115Z,80.64
2018-05-07T04:07:15.120Z,81.21
2018-05-07T04:08:13.959Z,81.97
2018-05-07T04:09:13.903Z,82.64
2018-05-07T04:10:13.805Z,81.97
2018-05-07T04:11:13.809Z,82.07
2018-05-07T04:12:13.649Z,81.87
2018-05-07T04:13:13.634Z,82.45
2018-05-07T04:14:13.491Z,83.01
2018-05-07T04:15:13.530Z,83.30
2018-05-07T04:16:13.343Z,82.73
2018-05-07T04:17:13.341Z,82.35
2018-05-07T04:18:13.182Z,81.87
2018-05-07T04:19:13.150Z,82.45
2018-05-07T04:20:13.028Z,81.40
2018-05-07T04:21:12.961Z,81.02
2018-05-07T04:22:12.874Z,81.40
2018-05-07T04:23:12.802Z,81.49
2018-05-07T04:24:12.722Z,81.12
2018-05-07T04:25:12.652Z,80.45
2018-05-07T04:26:12.555Z,80.35
2018-05-07T04:27:12.493Z,81.02
2018-05-07T04:28:12.418Z,81.40
2018-05-07T04:29:12.399Z,82.35
2018-05-07T04:30:12.252Z,82.35
2018-05-07T04:31:12.177Z,82.92
2018-05-07T04:32:12.094Z,83.20
2018-05-07T04:33:12.117Z,82.45
2018-05-07T04:34:11.941Z,83.49
2018-05-07T04:35:11.925Z,83.87
2018-05-07T04:36:11.784Z,84.91
2018-05-07T04:37:11.736Z,84.82
2018-05-07T04:38:11.630Z,84.63
2018-05-07T04:39:11.560Z,84.53
2018-05-07T04:40:11.474Z,85.11
2018-05-07T04:41:11.405Z,85.20
2018-05-07T04:42:11.324Z,85.11
2018-05-07T04:43:11.283Z,86.15
2018-05-07T04:44:11.166Z,86.43
2018-05-07T04:45:11.091Z,85.72
2018-05-07T04:46:11.014Z,85.53
2018-05-07T04:47:10.978Z,85.72
2018-05-07T04:48:10.846Z,86.10
2018-05-07T04:49:10.776Z,86.86
2018-05-07T04:50:10.695Z,86.19
2018-05-07T04:51:10.628Z,86.38
2018-05-07T04:52:10.537Z,86.10
2018-05-07T04:53:10.508Z,86.38
2018-05-07T04:54:10.397Z,86.10
2018-05-07T04:55:10.441Z,86.67
2018-05-07T04:56:10.267Z,87.14
2018-05-07T04:57:10.227Z,86.95
2018-05-07T04:58:10.075Z,87.62
2018-05-07T04:59:10.036Z,87.14
2018-05-07T05:00:09.913Z,87.14
2018-05-07T05:01:09.949Z,87.05
2018-05-07T05:02:09.763Z,87.24
2018-05-07T05:03:09.688Z,87.14
2018-05-07T05:04:10.648Z,86.99
2018-05-07T05:05:09.525Z,87.47
2018-05-07T05:06:09.456Z,86.99
2018-05-07T05:07:09.445Z,87.38
2018-05-07T05:08:09.303Z,87.47
2018-05-07T05:09:09.210Z,87.28
2018-05-07T05:10:09.146Z,86.99
2018-05-07T05:11:09.061Z,87.38
2018-05-07T05:12:09.990Z,87.19
2018-05-07T05:13:08.913Z,86.80
2018-05-07T05:14:08.833Z,87.09
2018-05-07T05:15:08.752Z,87.66
2018-05-07T05:16:08.683Z,87.09
2018-05-07T05:17:08.592Z,87.28
2018-05-07T05:18:08.624Z,86.66
2018-05-07T05:19:08.517Z,86.57
2018-05-07T05:20:08.369Z,86.38
2018-05-07T05:21:08.316Z,86.47
2018-05-07T05:22:08.214Z,86.94
2018-05-07T05:23:08.129Z,87.13
2018-05-07T05:24:08.155Z,87.32
2018-05-07T05:25:07.977Z,87.52
2018-05-07T05:26:07.903Z,87.13
2018-05-07T05:27:07.821Z,87.61
2018-05-07T05:28:07.746Z,88.09
2018-05-07T05:29:07.667Z,88.46
2018-05-07T05:30:07.595Z,88.46
2018-05-07T05:31:07.509Z,87.80
2018-05-07T05:32:07.443Z,87.99
2018-05-07T05:33:07.356Z,88.42
2018-05-07T05:34:07.296Z,88.51
2018-05-07T05:35:07.202Z,88.99
2018-05-07T05:36:07.124Z,88.89
2018-05-07T05:37:07.049Z,88.99
2018-05-07T05:38:07.013Z,89.08
2018-05-07T05:39:06.893Z,89.75
2018-05-07T05:40:06.824Z,89.56
2018-05-07T05:41:06.745Z,89.75
2018-05-07T05:42:06.671Z,89.47
2018-05-07T05:43:06.585Z,89.27
2018-05-07T05:44:06.542Z,88.79
2018-05-07T05:45:06.442Z,88.79
2018-05-07T05:46:06.457Z,88.89
2018-05-07T05:47:06.290Z,88.84
2018-05-07T05:48:06.297Z,88.56
2018-05-07T05:49:06.124Z,88.27
2018-05-07T05:50:06.144Z,88.75
2018-05-07T05:51:05.969Z,88.65
2018-05-07T05:52:05.983Z,88.46
2018-05-07T05:53:05.815Z,88.18
2018-05-07T05:54:05.792Z,87.70
2018-05-07T05:55:05.660Z,87.79
2018-05-07T05:56:05.599Z,87.46
2018-05-07T05:57:05.500Z,86.51
2018-05-07T05:58:05.511Z,85.64
2018-05-07T05:59:05.350Z,85.08
2018-05-07T06:00:05.324Z,84.12
2018-05-07T06:01:05.200Z,83.45
2018-05-07T06:02:05.230Z,83.45
2018-05-07T06:03:05.044Z,82.35
2018-05-07T06:04:05.079Z,82.54
2018-05-07T06:05:04.895Z,82.35
2018-05-07T06:06:04.850Z,81.78
2018-05-07T06:07:04.738Z,81.59
2018-05-07T06:08:04.756Z,81.44
2018-05-07T06:09:04.608Z,80.11
2018-05-07T06:10:05.592Z,80.11
2018-05-07T06:11:04.429Z,80.49
2018-05-07T06:12:04.375Z,80.01
2018-05-07T06:13:04.278Z,80.11
2018-05-07T06:14:04.286Z,79.63
2018-05-07T06:15:04.130Z,80.39
2018-05-07T06:16:04.095Z,80.49
2018-05-07T06:17:03.969Z,78.49
2018-05-07T06:18:04.005Z,78.20
2018-05-07T06:19:03.819Z,78.10
2018-05-07T06:20:03.815Z,79.25
2018-05-07T06:21:03.673Z,79.53
2018-05-07T06:22:03.621Z,77.86
2018-05-07T06:23:03.515Z,77.09
2018-05-07T06:24:03.531Z,75.76
2018-05-07T06:25:03.366Z,76.04
2018-05-07T06:26:03.341Z,76.04
2018-05-07T06:27:03.214Z,76.71
2018-05-07T06:28:03.253Z,76.08
2018-05-07T06:29:03.056Z,75.03
2018-05-07T06:30:03.059Z,73.88
2018-05-07T06:31:02.934Z,73.41
2018-05-07T06:32:02.868Z,73.88
2018-05-07T06:33:02.749Z,73.50
2018-05-07T06:34:02.786Z,74.93
2018-05-07T06:35:02.600Z,73.32
2018-05-07T06:36:02.593Z,72.74
2018-05-07T06:37:02.447Z,73.25
2018-05-07T06:38:02.399Z,72.49
2018-05-07T06:39:02.298Z,72.97
2018-05-07T06:40:02.309Z,73.63
2018-05-07T06:41:02.151Z,72.11
2018-05-07T06:42:02.117Z,71.92
2018-05-07T06:43:01.992Z,71.92
2018-05-07T06:44:02.028Z,71.38
2018-05-07T06:45:01.841Z,71.09
2018-05-07T06:46:01.908Z,70.61
2018-05-07T06:47:01.689Z,71.00
2018-05-07T06:48:01.645Z,70.90
2018-05-07T06:49:01.543Z,71.86
2018-05-07T06:50:01.557Z,70.36
2018-05-07T06:51:01.390Z,69.60
2018-05-07T06:52:01.424Z,68.74
2018-05-07T06:53:01.238Z,68.93
2018-05-07T06:54:01.279Z,68.07
2018-05-07T06:55:01.087Z,67.88
2018-05-07T06:56:01.085Z,68.39
2018-05-07T06:57:00.935Z,67.05
2018-05-07T06:58:00.893Z,66.76
2018-05-07T06:59:00.788Z,67.24
2018-05-07T07:00:00.800Z,66.00
2018-05-07T07:01:00.638Z,65.42
2018-05-07T07:02:00.620Z,66.03
2018-05-07T07:03:00.515Z,65.65
2018-05-07T07:04:00.525Z,65.08
2018-05-07T07:05:00.335Z,64.59
2018-05-07T07:06:00.333Z,64.31
2018-05-07T07:07:00.184Z,63.06
2018-05-07T07:08:00.241Z,63.10
2018-05-07T07:09:00.039Z,63.48
2018-05-07T07:10:00.051Z,62.71
2018-05-07T07:10:59.887Z,63.10
2018-05-07T07:11:59.858Z,65.01
2018-05-07T07:12:59.734Z,63.86
2018-05-07T07:13:59.769Z,64.72
2018-05-07T07:14:59.591Z,64.56
2018-05-07T07:15:59.580Z,63.89
2018-05-07T07:16:59.438Z,63.22
2018-05-07T07:17:59.387Z,62.36
2018-05-07T07:18:59.296Z,62.36
2018-05-07T07:19:59.298Z,61.91
2018-05-07T07:20:59.139Z,61.43
2018-05-07T07:21:59.106Z,60.38
2018-05-07T07:22:58.989Z,59.61
2018-05-07T07:23:59.036Z,59.80
2018-05-07T07:24:58.857Z,59.71
2018-05-07T07:25:58.827Z,59.93
2018-05-07T07:26:58.696Z,58.49
2018-05-07T07:27:58.758Z,58.49
2018-05-07T07:28:58.550Z,59.83
2018-05-07T07:29:58.544Z,60.70
2018-05-07T07:30:58.396Z,58.69
2018-05-07T07:31:58.355Z,58.14
2018-05-07T07:32:58.259Z,56.38
2018-05-07T07:33:58.345Z,58.04
2018-05-07T07:34:58.123Z,59.86
2018-05-07T07:35:58.075Z,59.67
2018-05-07T07:36:57.960Z,59.00
2018-05-07T07:37:57.986Z,58.52
2018-05-07T07:38:57.814Z,56.73
2018-05-07T07:39:57.799Z,58.26
2018-05-07T07:40:57.670Z,58.55
2018-05-07T07:41:57.704Z,58.77
2018-05-07T07:42:57.523Z,56.66
2018-05-07T07:43:57.511Z,55.89
2018-05-07T07:44:57.373Z,54.38
2018-05-07T07:45:57.420Z,53.90
2018-05-07T07:46:57.312Z,53.13
2018-05-07T07:47:57.232Z,53.80
2018-05-07T07:48:57.089Z,53.52
2018-05-07T07:49:57.044Z,53.90
2018-05-07T07:50:56.942Z,52.94
2018-05-07T07:51:56.951Z,53.64
2018-05-07T07:52:56.797Z,52.48
2018-05-07T07:53:56.759Z,54.02
2018-05-07T07:54:56.661Z,54.99
2018-05-07T07:55:56.671Z,53.28
2018-05-07T07:56:56.508Z,52.42
2018-05-07T07:57:56.478Z,51.76
2018-05-07T07:58:56.367Z,50.51
2018-05-07T07:59:56.390Z,48.40
2018-05-07T08:00:56.220Z,47.63
2018-05-07T08:01:56.197Z,47.44
2018-05-07T08:02:56.083Z,46.77
2018-05-07T08:03:56.108Z,46.67
2018-05-07T08:04:55.941Z,46.67
2018-05-07T08:05:55.921Z,47.53
2018-05-07T08:06:55.796Z,47.53
2018-05-07T08:07:55.827Z,46.19
2018-05-07T08:08:55.652Z,46.28
2018-05-07T08:09:55.639Z,47.82
2018-05-07T08:10:55.512Z,48.40
2018-05-07T08:11:55.551Z,46.67
2018-05-07T08:12:55.377Z,45.61
2018-05-07T08:13:55.360Z,46.21
2018-05-07T08:14:55.226Z,44.96
2018-05-07T08:15:55.268Z,43.90
2018-05-07T08:16:55.099Z,45.05
2018-05-07T08:17:55.077Z,45.44
2018-05-07T08:18:54.949Z,43.90
2018-05-07T08:19:54.982Z,43.90
2018-05-07T08:20:54.808Z,45.25
2018-05-07T08:21:54.794Z,43.90
2018-05-07T08:22:54.669Z,44.86
2018-05-07T08:23:54.706Z,44.79
2018-05-07T08:24:54.525Z,43.63
2018-05-07T08:25:54.517Z,42.09
2018-05-07T08:26:54.385Z,42.96
2018-05-07T08:27:54.424Z,43.80
2018-05-07T08:28:54.246Z,43.13
2018-05-07T08:29:54.249Z,43.51
2018-05-07T08:30:54.107Z,42.84
2018-05-07T08:31:54.147Z,43.32
2018-05-07T08:32:53.966Z,43.63
2018-05-07T08:33:53.954Z,42.16
2018-05-07T08:34:53.827Z,43.05
2018-05-07T08:35:53.862Z,42.76
2018-05-07T08:36:53.685Z,42.28
2018-05-07T08:37:53.672Z,42.28
2018-05-07T08:38:53.552Z,42.74
2018-05-07T08:39:53.590Z,43.05
2018-05-07T08:40:53.410Z,43.63
2018-05-07T08:41:53.396Z,42.67
2018-05-07T08:42:53.272Z,41.61
2018-05-07T08:43:53.305Z,41.80
2018-05-07T08:44:53.129Z,41.49
2018-05-07T08:45:53.117Z,42.65
2018-05-07T08:46:52.997Z,43.03
2018-05-07T08:47:53.021Z,42.65
2018-05-07T08:48:52.852Z,42.55
2018-05-07T08:49:52.836Z,42.76
2018-05-07T08:50:52.793Z,41.71
2018-05-07T08:51:52.751Z,41.80
2018-05-07T08:52:52.594Z,42.38
2018-05-07T08:53:52.556Z,41.80
2018-05-07T08:54:52.441Z,41.71
2018-05-07T08:55:52.464Z,41.24
2018-05-07T08:56:52.302Z,41.63
2018-05-07T08:57:52.275Z,42.21
2018-05-07T08:58:52.161Z,42.40
2018-05-07T08:59:52.182Z,41.82
2018-05-07T09:00:52.025Z,40.95
2018-05-07T09:01:52.001Z,40.28
2018-05-07T09:02:51.892Z,40.36
2018-05-07T09:03:51.901Z,41.51
2018-05-07T09:04:51.748Z,41.80
2018-05-07T09:05:51.710Z,43.05
2018-05-07T09:06:51.610Z,42.19
2018-05-07T09:07:51.620Z,41.92
2018-05-07T09:08:51.470Z,42.11
2018-05-07T09:09:51.429Z,40.47
2018-05-07T09:10:51.337Z,40.57
2018-05-07T09:11:51.343Z,40.76
2018-05-07T09:12:51.200Z,41.63
2018-05-07T09:13:51.160Z,40.09
2018-05-07T09:14:51.062Z,40.37
2018-05-07T09:15:51.069Z,41.46
2018-05-07T09:16:50.923Z,40.20
2018-05-07T09:17:50.970Z,39.62
2018-05-07T09:18:50.783Z,40.97
2018-05-07T09:19:50.780Z,39.72
2018-05-07T09:20:50.646Z,38.87
2018-05-07T09:21:50.688Z,39.06
2018-05-07T09:22:50.509Z,39.26
2018-05-07T09:23:50.499Z,39.94
2018-05-07T09:24:50.458Z,38.68
2018-05-07T09:25:50.410Z,37.91
2018-05-07T09:26:50.245Z,37.81
2018-05-07T09:27:50.217Z,38.01
2018-05-07T09:28:50.104Z,39.16
2018-05-07T09:29:50.130Z,38.78
2018-05-07T09:30:49.965Z,37.98
2018-05-07T09:31:49.942Z,37.98
2018-05-07T09:32:49.824Z,37.98
2018-05-07T09:33:49.874Z,39.14
2018-05-07T09:34:49.691Z,38.18
2018-05-07T09:35:49.657Z,38.85
2018-05-07T09:36:49.559Z,38.46
2018-05-07T09:37:49.574Z,38.56
2018-05-07T09:38:49.426Z,37.77
2018-05-07T09:39:49.382Z,38.85
2018-05-07T09:40:49.283Z,38.66
2018-05-07T09:41:49.287Z,38.85
2018-05-07T09:42:49.153Z,40.49
2018-05-07T09:43:49.096Z,39.74
2018-05-07T09:44:49.012Z,40.80
2018-05-07T09:45:49.007Z,39.57
2018-05-07T09:46:48.890Z,38.51
2018-05-07T09:47:48.929Z,38.70
2018-05-07T09:48:48.741Z,38.23
2018-05-07T09:49:48.728Z,35.90
2018-05-07T09:50:48.604Z,38.02
2018-05-07T09:51:48.646Z,37.15
2018-05-07T09:52:48.467Z,37.06
2018-05-07T09:53:48.448Z,37.54
2018-05-07T09:54:48.335Z,36.38
2018-05-07T09:55:48.359Z,37.45
2018-05-07T09:56:48.275Z,37.73
2018-05-07T09:57:48.163Z,36.96
2018-05-07T09:58:48.066Z,37.93
2018-05-07T09:59:48.076Z,36.88
2018-05-07T10:00:47.927Z,36.87
2018-05-07T10:01:47.891Z,36.96
2018-05-07T10:02:47.796Z,36.96
2018-05-07T10:03:47.795Z,36.96
2018-05-07T10:04:47.657Z,36.29
2018-05-07T10:05:47.707Z,36.77
2018-05-07T10:06:47.525Z,37.06
2018-05-07T10:07:47.514Z,37.15
2018-05-07T10:08:47.388Z,36.09
2018-05-07T10:09:47.424Z,36.77
2018-05-07T10:10:47.256Z,36.87
2018-05-07T10:11:47.232Z,37.15
2018-05-07T10:12:47.119Z,36.79
2018-05-07T10:13:47.145Z,36.00
2018-05-07T10:14:46.987Z,36.40
2018-05-07T10:15:46.960Z,37.08
2018-05-07T10:16:46.860Z,35.72
2018-05-07T10:17:46.863Z,36.11
2018-05-07T10:18:46.713Z,37.27
2018-05-07T10:19:46.670Z,37.27
2018-05-07T10:20:46.581Z,36.80
2018-05-07T10:21:46.588Z,36.13
2018-05-07T10:22:46.447Z,35.74
2018-05-07T10:23:46.494Z,35.84
2018-05-07T10:24:46.315Z,34.68
2018-05-07T10:25:46.305Z,35.36
2018-05-07T10:26:46.176Z,34.48
2018-05-07T10:27:46.215Z,34.87
2018-05-07T10:28:46.049Z,35.06
2018-05-07T10:29:46.038Z,35.36
2018-05-07T10:30:45.914Z,34.48
2018-05-07T10:31:45.936Z,34.29
2018-05-07T10:32:45.778Z,33.60
2018-05-07T10:33:45.744Z,35.14
2018-05-07T10:34:45.646Z,35.44
2018-05-07T10:35:45.656Z,36.11
2018-05-07T10:36:45.516Z,36.11
2018-05-07T10:37:45.463Z,35.74
2018-05-07T10:38:45.384Z,34.87
2018-05-07T10:39:45.375Z,35.84
2018-05-07T10:40:45.248Z,36.22
2018-05-07T10:41:45.285Z,35.55
2018-05-07T10:42:45.181Z,35.45
2018-05-07T10:43:45.096Z,35.26
2018-05-07T10:44:44.979Z,35.18
2018-05-07T10:45:45.014Z,35.76
2018-05-07T10:46:44.846Z,38.00
2018-05-07T10:47:44.814Z,35.39
2018-05-07T10:48:44.712Z,35.00
2018-05-07T10:49:44.726Z,36.16
2018-05-07T10:50:44.579Z,35.21
2018-05-07T10:51:44.533Z,35.50
2018-05-07T10:52:44.451Z,33.57
2018-05-07T10:53:44.444Z,34.54
2018-05-07T10:54:44.316Z,35.31
2018-05-07T10:55:44.354Z,35.41
2018-05-07T10:56:44.181Z,35.33
2018-05-07T10:57:44.165Z,36.98
2018-05-07T10:58:44.054Z,34.45
2018-05-07T10:59:44.076Z,33.39
2018-05-07T11:00:43.920Z,32.62
2018-05-07T11:01:43.962Z,32.81
2018-05-07T11:02:43.782Z,33.29
2018-05-07T11:03:43.794Z,34.17
2018-05-07T11:04:43.665Z,34.65
2018-05-07T11:05:43.710Z,35.42
2018-05-07T11:06:43.534Z,32.24
2018-05-07T11:07:43.517Z,32.92
2018-05-07T11:08:43.397Z,34.96
2018-05-07T11:09:44.351Z,32.34
2018-05-07T11:10:43.263Z,34.28
2018-05-07T11:11:49.285Z,34.17
2018-05-07T11:12:43.147Z,33.29
2018-05-07T11:13:43.153Z,32.81
2018-05-07T11:14:43.005Z,32.52
2018-05-07T11:15:42.959Z,33.01
2018-05-07T11:16:42.870Z,33.87
2018-05-07T11:17:42.866Z,33.80
2018-05-07T11:18:42.739Z,34.47
2018-05-07T11:19:42.828Z,31.67
2018-05-07T11:20:42.608Z,32.06
2018-05-07T11:21:42.588Z,32.06
2018-05-07T11:22:42.487Z,33.99
2018-05-07T11:23:42.496Z,34.09
2018-05-07T11:24:42.349Z,34.30
2018-05-07T11:25:42.309Z,34.11
2018-05-07T11:26:42.220Z,31.49
2018-05-07T11:27:42.217Z,30.81
2018-05-07T11:28:42.085Z,31.49
2018-05-07T11:29:42.129Z,33.62
2018-05-07T11:30:41.960Z,34.30
2018-05-07T11:31:41.938Z,33.04
2018-05-07T11:32:41.823Z,32.57
2018-05-07T11:33:41.845Z,32.37
2018-05-07T11:34:41.699Z,32.76
2018-05-07T11:35:41.654Z,31.70
2018-05-07T11:36:41.569Z,31.60
2018-05-07T11:37:46.279Z,31.99
2018-05-07T11:38:41.436Z,33.73
2018-05-07T11:39:41.480Z,30.44
2018-05-07T11:40:41.315Z,27.92
2018-05-07T11:41:41.285Z,30.81
2018-05-07T11:42:41.183Z,31.97
2018-05-07T11:43:41.198Z,31.87
2018-05-07T11:44:41.054Z,31.49
2018-05-07T11:45:41.004Z,30.81
2018-05-07T11:46:40.922Z,29.94
2018-05-07T11:47:40.963Z,30.81
2018-05-07T11:48:40.790Z,31.01
2018-05-07T11:49:40.741Z,31.37
2018-05-07T11:50:40.664Z,32.15
2018-05-07T11:51:40.622Z,34.20
2018-05-07T11:52:40.535Z,33.04
2018-05-07T11:53:40.478Z,32.47
2018-05-07T11:54:40.405Z,29.95
2018-05-07T11:55:40.458Z,30.92
2018-05-07T11:56:40.279Z,29.17
2018-05-07T11:57:40.267Z,30.62
2018-05-07T11:58:40.149Z,30.04
2018-05-07T11:59:40.176Z,30.23
2018-05-07T12:00:40.020Z,30.81
2018-05-07T12:01:39.984Z,30.32
2018-05-07T12:02:39.912Z,30.81
2018-05-07T12:03:39.898Z,32.28
2018-05-07T12:04:39.764Z,31.89
2018-05-07T12:05:39.807Z,30.44
2018-05-07T12:06:39.633Z,30.92
2018-05-07T12:07:39.615Z,32.28
2018-05-07T12:08:39.505Z,30.94
2018-05-07T12:09:39.527Z,34.81
2018-05-07T12:10:39.377Z,29.97
2018-05-07T12:11:40.358Z,28.02
2018-05-07T12:12:39.249Z,27.92
2018-05-07T12:13:39.246Z,29.06
2018-05-07T12:14:39.119Z,29.74
2018-05-07T12:15:39.209Z,29.66
2018-05-07T12:16:38.991Z,29.17
2018-05-07T12:17:38.966Z,28.68
2018-05-07T12:18:38.861Z,28.77
2018-05-07T12:19:38.880Z,28.19
2018-05-07T12:20:38.740Z,29.74
2018-05-07T12:21:38.787Z,29.94
2018-05-07T12:22:38.607Z,30.04
2018-05-07T12:23:38.605Z,29.26
2018-05-07T12:24:38.491Z,29.06
2018-05-07T12:25:38.425Z,31.01
2018-05-07T12:26:38.350Z,30.42
2018-05-07T12:27:38.317Z,28.29
2018-05-07T12:28:38.227Z,29.06
2018-05-07T12:29:38.230Z,29.06
2018-05-07T12:30:38.091Z,29.16
2018-05-07T12:31:38.177Z,29.55
2018-05-07T12:32:37.966Z,30.13
2018-05-07T12:33:37.950Z,30.44
2018-05-07T12:34:37.837Z,30.34
2018-05-07T12:35:37.858Z,29.16
2018-05-07T12:36:37.710Z,30.44
2018-05-07T12:37:37.714Z,30.63
2018-05-07T12:38:37.586Z,29.08
2018-05-07T12:39:37.579Z,28.98
2018-05-07T12:40:37.451Z,29.57
2018-05-07T12:41:37.491Z,28.69
2018-05-07T12:42:37.331Z,30.42
2018-05-07T12:43:37.299Z,30.13
2018-05-07T12:44:37.196Z,30.04
2018-05-07T12:45:37.212Z,31.79
2018-05-07T12:46:37.065Z,30.23
2018-05-07T12:47:37.117Z,30.04
2018-05-07T12:48:36.941Z,30.52
2018-05-07T12:49:36.927Z,31.29
2018-05-07T12:50:36.812Z,30.23
2018-05-07T12:51:36.838Z,32.37